Time;durP1;ratioP1;P1;durP2;ratioP2;P2;SDS_P1;SDS_P2;PMS_P1;PMS_P2;Temp;Humidity;BMP_temperature;BMP_pressure;BME280_temperature;BME280_humidity;BME280_pressure;Samples;Min_cycle;Max_cycle;Signal;HPM_P1;HPM_P2
2023/12/07 00:01:09;;;;;;;;;;;;;;;-0.10;100.00;101910.25;5047558;28;1101;-71
2023/12/07 00:03:35;;;;;;;;;;;;;;;-0.13;100.00;101905.19;5041498;28;1890;-73
2023/12/07 00:06:00;;;;;;;;;;;;;;;-0.18;100.00;101913.81;5044983;28;1318;-70
2023/12/07 00:08:25;;;;;;;;;;;;;;;-0.22;100.00;101909.66;5043181;28;1321;-71
2023/12/07 00:10:50;;;;;;;;;;;;;;;-0.27;100.00;101917.38;5038726;28;1153;-71
2023/12/07 00:13:15;;;;;;;;;;;;;;;-0.30;100.00;101914.88;5039281;28;1312;-72
2023/12/07 00:15:40;;;;;;;;;;;;;;;-0.32;100.00;101911.53;5044593;28;1048;-72
2023/12/07 00:18:06;;;;;;;;;;;;;;;-0.35;100.00;101909.03;5043882;28;1127;-72
2023/12/07 00:20:31;;;;;;;;;;;;;;;-0.35;100.00;101914.13;5043964;28;1165;-72
2023/12/07 00:22:56;;;;;;;;;;;;;;;-0.38;100.00;101915.03;5050108;28;1890;-70
2023/12/07 00:25:21;;;;;;;;;;;;;;;-0.41;100.00;101919.34;5048041;28;1153;-72
2023/12/07 00:27:47;;;;;;;;;;;;;;;-0.43;100.00;101909.19;5047473;28;1055;-71
2023/12/07 00:30:12;;;;;;;;;;;;;;;-0.47;100.00;101914.34;5044071;28;1306;-72
2023/12/07 00:32:37;;;;;;;;;;;;;;;-0.47;100.00;101909.25;5053744;28;1142;-71
2023/12/07 00:35:03;;;;;;;;;;;;;;;-0.46;100.00;101921.13;5048795;28;1347;-71
2023/12/07 00:37:28;;;;;;;;;;;;;;;-0.44;100.00;101906.66;5047935;28;1209;-73
2023/12/07 00:39:53;;;;;;;;;;;;;;;-0.44;100.00;101909.22;5041129;28;1064;-70
2023/12/07 00:42:18;;;;;;;;;;;;;;;-0.43;100.00;101905.78;5052712;28;1977;-72
2023/12/07 00:44:43;;;;;;;;;;;;;;;-0.43;100.00;101900.69;5044789;28;1184;-71
2023/12/07 00:47:09;;;;;;;;;;;;;;;-0.42;100.00;101902.38;5043933;28;1022;-72
2023/12/07 00:49:37;;;;;;;;;;;;;;;-0.41;100.00;101898.94;5048384;28;1085;-71
2023/12/07 00:52:02;;;;;;;;;;;;;;;-0.39;100.00;101907.41;5046917;28;1001;-71
2023/12/07 00:54:27;;;;;;;;;;;;;;;-0.39;100.00;101912.50;5044236;28;1129;-71
2023/12/07 00:56:52;;;;;;;;;;;;;;;-0.41;100.00;101904.03;5052626;28;1140;-71
2023/12/07 00:59:17;;;;;;;;;;;;;;;-0.39;100.00;101912.50;5045987;28;1087;-70
2023/12/07 01:01:43;;;;;;;;;;;;;;;-0.41;100.00;101904.03;5044833;28;1976;-70
2023/12/07 01:04:08;;;;;;;;;;;;;;;-0.43;100.00;101900.69;5049307;28;1161;-71
2023/12/07 01:06:33;;;;;;;;;;;;;;;-0.47;100.00;101899.06;5047139;28;1097;-71
2023/12/07 01:08:58;;;;;;;;;;;;;;;-0.50;100.00;101904.22;5032464;28;2196;-71
2023/12/07 01:11:24;;;;;;;;;;;;;;;-0.50;100.00;101909.31;5044272;28;1177;-72
2023/12/07 01:13:49;;;;;;;;;;;;;;;-0.49;100.00;101905.91;5053409;28;1165;-71
2023/12/07 01:16:15;;;;;;;;;;;;;;;-0.49;100.00;101911.00;5041299;28;1214;-71
2023/12/07 01:18:40;;;;;;;;;;;;;;;-0.49;100.00;101916.09;5049554;28;1055;-71
2023/12/07 01:21:05;;;;;;;;;;;;;;;-0.48;100.00;101912.69;5049334;28;1401;-73
2023/12/07 01:23:31;;;;;;;;;;;;;;;-0.48;100.00;101917.78;5052972;28;1969;-71
2023/12/07 01:25:56;;;;;;;;;;;;;;;-0.46;100.00;101918.56;5054887;28;1317;-72
2023/12/07 01:28:22;;;;;;;;;;;;;;;-0.46;100.00;101922.00;5051853;28;1066;-71
2023/12/07 01:30:47;;;;;;;;;;;;;;;-0.44;100.00;101919.41;5040073;28;1305;-71
2023/12/07 01:33:12;;;;;;;;;;;;;;;-0.44;100.00;101921.94;5053405;28;1376;-72
2023/12/07 01:35:37;;;;;;;;;;;;;;;-0.44;100.00;101924.50;5047613;28;1172;-70
2023/12/07 01:38:02;;;;;;;;;;;;;;;-0.44;100.00;101921.94;5043828;28;1477;-73
2023/12/07 01:40:27;;;;;;;;;;;;;;;-0.43;100.00;101926.19;5042135;28;1303;-71
2023/12/07 01:42:53;;;;;;;;;;;;;;;-0.48;100.00;101931.34;5048975;28;1989;-74
2023/12/07 01:45:18;;;;;;;;;;;;;;;-0.51;100.00;101923.78;5042488;28;1153;-71
2023/12/07 01:47:44;;;;;;;;;;;;;;;-0.61;100.00;101927.34;5039377;28;1106;-72
2023/12/07 01:50:10;;;;;;;;;;;;;;;-0.65;100.00;101931.66;5039407;28;1503;-71
2023/12/07 01:52:37;;;;;;;;;;;;;;;-0.65;100.00;101915.53;5044618;28;1098;-70
2023/12/07 01:55:03;;;;;;;;;;;;;;;-0.64;100.00;101923.13;5041707;28;1452;-71
2023/12/07 01:57:28;;;;;;;;;;;;;;;-0.63;100.00;101919.75;5042910;28;1138;-72
2023/12/07 01:59:54;;;;;;;;;;;;;;;-0.62;100.00;101920.56;5043143;28;1286;-72
2023/12/07 02:02:19;;;;;;;;;;;;;;;-0.64;100.00;101918.03;5036637;28;1965;-72
2023/12/07 02:04:44;;;;;;;;;;;;;;;-0.66;100.00;101919.78;5045546;28;1534;-71
2023/12/07 02:07:10;;;;;;;;;;;;;;;-0.68;100.00;101926.63;5038699;28;1108;-73
2023/12/07 02:09:35;;;;;;;;;;;;;;;-0.70;100.00;101923.25;5048046;28;1049;-71
2023/12/07 02:12:00;;;;;;;;;;;;;;;-0.73;100.00;101922.47;5039649;28;1091;-71
2023/12/07 02:14:26;;;;;;;;;;;;;;;-0.74;100.00;101931.81;5041911;28;1160;-70
2023/12/07 02:16:55;;;;;;;;;;;;;;;-0.76;100.00;101928.44;5050671;28;1129;-70
2023/12/07 02:19:33;;;;;;;;;;;;;;;-0.81;100.00;101925.13;5054913;28;1076;-72
2023/12/07 02:21:59;;;;;;;;;;;;;;;-0.89;100.00;101926.97;5049679;28;1886;-73
2023/12/07 02:24:27;;;;;;;;;;;;;;;-1.00;100.00;101928.84;5036138;28;959;-71
2023/12/07 02:26:52;;;;;;;;;;;;;;;-1.08;100.00;101927.28;5043959;28;1154;-73
2023/12/07 02:29:17;;;;;;;;;;;;;;;-1.07;100.00;101923.84;5046021;28;1092;-71
2023/12/07 02:31:42;;;;;;;;;;;;;;;-1.04;100.00;101927.19;5046058;28;1020;-70
2023/12/07 02:34:08;;;;;;;;;;;;;;;-1.07;100.00;101923.84;5033128;28;1835;-71
2023/12/07 02:36:38;;;;;;;;;;;;;;;-1.03;100.00;101932.28;5029516;28;1130;-72
2023/12/07 02:39:03;;;;;;;;;;;;;;;-1.01;100.00;101932.25;5039326;28;1074;-70
2023/12/07 02:41:30;;;;;;;;;;;;;;;-0.99;100.00;101930.53;5033771;28;1077;-71
2023/12/07 02:43:57;;;;;;;;;;;;;;;-0.99;100.00;101921.19;5041414;28;2042;-71
2023/12/07 02:46:22;;;;;;;;;;;;;;;-0.97;100.00;101918.63;5039432;28;1067;-71
2023/12/07 02:48:47;;;;;;;;;;;;;;;-0.96;100.00;101917.75;5040846;28;1052;-72
2023/12/07 02:51:12;;;;;;;;;;;;;;;-0.96;100.00;101905.88;5037154;28;1178;-71
2023/12/07 02:53:38;;;;;;;;;;;;;;;-0.95;100.00;101906.69;5040186;28;1145;-72
2023/12/07 02:56:03;;;;;;;;;;;;;;;-0.95;100.00;101912.63;5034023;28;1226;-71
2023/12/07 02:58:28;;;;;;;;;;;;;;;-0.95;100.00;101901.59;5046505;28;1060;-71
2023/12/07 03:00:53;;;;;;;;;;;;;;;-0.94;100.00;101910.91;5042313;28;1207;-71
2023/12/07 03:03:18;;;;;;;;;;;;;;;-0.95;100.00;101911.78;5038484;28;1987;-72
2023/12/07 03:05:44;;;;;;;;;;;;;;;-0.95;100.00;101911.78;5042332;28;978;-72
2023/12/07 03:08:09;;;;;;;;;;;;;;;-0.96;100.00;101907.56;5035346;28;1208;-71
2023/12/07 03:10:34;;;;;;;;;;;;;;;-0.98;100.00;101906.72;5036971;28;1157;-71
2023/12/07 03:12:59;;;;;;;;;;;;;;;-0.97;100.00;101908.44;5037906;28;1094;-71
2023/12/07 03:15:26;;;;;;;;;;;;;;;-0.98;100.00;101911.81;5038200;28;1194;-74
2023/12/07 03:17:51;;;;;;;;;;;;;;;-1.00;100.00;101916.13;5036470;28;991;-71
2023/12/07 03:20:16;;;;;;;;;;;;;;;-1.02;100.00;101910.22;5033691;28;1178;-74
2023/12/07 03:22:42;;;;;;;;;;;;;;;-1.03;100.00;101908.50;5037089;28;1889;-73
2023/12/07 03:25:07;;;;;;;;;;;;;;;-1.04;100.00;101917.03;5041058;28;1103;-71
2023/12/07 03:27:32;;;;;;;;;;;;;;;-1.04;100.00;101922.13;5041688;28;995;-72
2023/12/07 03:29:57;;;;;;;;;;;;;;;-1.06;100.00;101914.50;5043654;28;1066;-72
2023/12/07 03:32:22;;;;;;;;;;;;;;;-1.03;100.00;101918.69;5045104;28;1083;-73
2023/12/07 03:34:48;;;;;;;;;;;;;;;-1.03;100.00;101923.78;5044287;28;1342;-72
2023/12/07 03:37:13;;;;;;;;;;;;;;;-1.04;100.00;101917.03;5040984;28;1228;-71
2023/12/07 03:39:38;;;;;;;;;;;;;;;-1.04;100.00;101922.13;5044982;28;1310;-72
2023/12/07 03:42:03;;;;;;;;;;;;;;;-1.04;100.00;101924.66;5046593;28;1977;-71
2023/12/07 03:44:28;;;;;;;;;;;;;;;-1.05;100.00;101925.53;5041878;28;1091;-71
2023/12/07 03:46:54;;;;;;;;;;;;;;;-1.09;100.00;101925.59;5042728;28;1162;-71
2023/12/07 03:49:19;;;;;;;;;;;;;;;-1.16;100.00;101923.97;5045177;28;1215;-70
2023/12/07 03:51:44;;;;;;;;;;;;;;;-1.21;100.00;101935.94;5048526;28;1006;-72
2023/12/07 03:54:09;;;;;;;;;;;;;;;-1.31;100.00;101926.78;5044111;28;1158;-71
2023/12/07 03:56:35;;;;;;;;;;;;;;;-1.42;100.00;101931.19;5049582;28;1070;-73
2023/12/07 03:59:00;;;;;;;;;;;;;;;-1.49;100.00;101935.53;5042611;28;1066;-72
2023/12/07 04:01:26;;;;;;;;;;;;;;;-1.50;100.00;101938.06;5047090;28;1108;-71
2023/12/07 04:03:51;;;;;;;;;;;;;;;-1.51;100.00;101931.28;5048686;28;1886;-72
2023/12/07 04:06:16;;;;;;;;;;;;;;;-1.51;100.00;101936.38;5046521;28;1211;-71
2023/12/07 04:08:42;;;;;;;;;;;;;;;-1.56;100.00;101938.97;5049368;28;1070;-71
2023/12/07 04:11:07;;;;;;;;;;;;;;;-1.62;100.00;101945.00;5048620;28;1019;-72
2023/12/07 04:13:33;;;;;;;;;;;;;;;-1.64;100.00;101945.88;5046660;28;1519;-71
2023/12/07 04:15:58;;;;;;;;;;;;;;;-1.64;100.00;101941.63;5048113;28;974;-71
2023/12/07 04:18:23;;;;;;;;;;;;;;;-1.62;100.00;101945.00;5045994;28;1112;-71
2023/12/07 04:20:48;;;;;;;;;;;;;;;-1.59;100.00;101943.28;5057676;28;2531;-70
2023/12/07 04:23:13;;;;;;;;;;;;;;;-1.58;100.00;101939.88;5039736;28;1952;-71
2023/12/07 04:25:39;;;;;;;;;;;;;;;-1.57;100.00;101951.72;5041298;28;1081;-72
2023/12/07 04:28:04;;;;;;;;;;;;;;;-1.57;100.00;101946.66;5040414;28;1090;-72
2023/12/07 04:30:29;;;;;;;;;;;;;;;-1.56;100.00;101943.22;5040911;28;920;-72
2023/12/07 04:32:54;;;;;;;;;;;;;;;-1.55;100.00;101945.75;5038204;28;1166;-72
2023/12/07 04:35:19;;;;;;;;;;;;;;;-1.52;100.00;101939.78;5035698;28;1023;-72
2023/12/07 04:37:44;;;;;;;;;;;;;;;-1.49;100.00;101945.69;5039986;28;1265;-72
2023/12/07 04:40:10;;;;;;;;;;;;;;;-1.47;100.00;101938.03;5042832;28;1317;-71
2023/12/07 04:42:35;;;;;;;;;;;;;;;-1.46;100.00;101940.53;5045852;28;1964;-71
2023/12/07 04:45:00;;;;;;;;;;;;;;;-1.44;100.00;101948.16;5047993;28;985;-73
2023/12/07 04:47:26;;;;;;;;;;;;;;;-1.44;100.00;101953.25;5043130;28;1184;-73
2023/12/07 04:49:51;;;;;;;;;;;;;;;-1.46;100.00;101954.97;5041272;28;1142;-73
2023/12/07 04:52:16;;;;;;;;;;;;;;;-1.43;100.00;101960.03;5038471;28;1106;-73
2023/12/07 04:54:41;;;;;;;;;;;;;;;-1.42;100.00;101956.63;5040218;28;987;-71
2023/12/07 04:57:07;;;;;;;;;;;;;;;-1.43;100.00;101957.50;5042654;28;1097;-71
2023/12/07 04:59:32;;;;;;;;;;;;;;;-1.42;100.00;101943.91;5038027;28;1210;-71
2023/12/07 05:01:57;;;;;;;;;;;;;;;-1.41;100.00;101943.03;5041805;28;1981;-72
2023/12/07 05:04:22;;;;;;;;;;;;;;;-1.41;100.00;101938.78;5035802;28;1190;-71
2023/12/07 05:06:47;;;;;;;;;;;;;;;-1.42;100.00;101941.34;5036346;28;1217;-72
2023/12/07 05:09:12;;;;;;;;;;;;;;;-1.43;100.00;101949.84;5039544;28;1178;-71
2023/12/07 05:11:38;;;;;;;;;;;;;;;-1.42;100.00;101946.44;5047813;28;1036;-71
2023/12/07 05:14:03;;;;;;;;;;;;;;;-1.42;100.00;101944.75;5045719;28;1061;-71
2023/12/07 05:16:28;;;;;;;;;;;;;;;-1.41;100.00;101948.13;5042986;28;1068;-72
2023/12/07 05:18:53;;;;;;;;;;;;;;;-1.43;100.00;101942.22;5041107;28;1104;-72
2023/12/07 05:21:19;;;;;;;;;;;;;;;-1.45;100.00;101943.94;5040958;28;1292;-72
2023/12/07 05:23:44;;;;;;;;;;;;;;;-1.48;100.00;101936.34;5033423;28;1902;-72
2023/12/07 05:26:10;;;;;;;;;;;;;;;-1.50;100.00;101932.97;5039998;28;1139;-72
2023/12/07 05:28:36;;;;;;;;;;;;;;;-1.51;100.00;101938.94;5039264;28;1128;-72
2023/12/07 05:31:01;;;;;;;;;;;;;;;-1.50;100.00;101950.78;5040895;28;1125;-71
2023/12/07 05:33:26;;;;;;;;;;;;;;;-1.55;100.00;101944.91;5044474;28;1023;-72
2023/12/07 05:35:51;;;;;;;;;;;;;;;-1.56;100.00;101953.41;5039937;28;1173;-72
2023/12/07 05:38:16;;;;;;;;;;;;;;;-1.57;100.00;101956.81;5038595;28;1146;-73
2023/12/07 05:40:41;;;;;;;;;;;;;;;-1.61;100.00;101951.78;5044164;28;1007;-70
2023/12/07 05:43:07;;;;;;;;;;;;;;;-1.62;100.00;101955.16;5046411;28;1971;-71
2023/12/07 05:45:33;;;;;;;;;;;;;;;-1.65;100.00;101951.84;5044549;28;1170;-72
2023/12/07 05:47:58;;;;;;;;;;;;;;;-1.66;100.00;101940.84;5039940;28;1148;-70
2023/12/07 05:50:23;;;;;;;;;;;;;;;-1.68;100.00;101929.81;5059995;28;2169;-71
2023/12/07 05:52:49;;;;;;;;;;;;;;;-1.66;100.00;101929.81;5043588;28;1562;-71
2023/12/07 05:55:14;;;;;;;;;;;;;;;-1.67;100.00;101931.50;5045406;28;1073;-70
2023/12/07 05:57:40;;;;;;;;;;;;;;;-1.66;100.00;101935.75;5045312;28;1249;-71
2023/12/07 06:00:09;;;;;;;;;;;;;;;-1.67;100.00;101926.41;5043816;28;1200;-72
2023/12/07 06:02:35;;;;;;;;;;;;;;;-1.66;100.00;101933.19;5041984;28;1922;-71
2023/12/07 06:05:00;;;;;;;;;;;;;;;-1.65;100.00;101939.97;5040729;28;1440;-74
2023/12/07 06:07:25;;;;;;;;;;;;;;;-1.63;100.00;101933.16;5043166;28;1376;-71
2023/12/07 06:09:50;;;;;;;;;;;;;;;-1.62;100.00;101923.81;5039702;28;1444;-71
2023/12/07 06:12:16;;;;;;;;;;;;;;;-1.65;100.00;101919.63;5035962;28;1293;-72
2023/12/07 06:14:41;;;;;;;;;;;;;;;-1.65;100.00;101928.94;5040904;28;1093;-71
2023/12/07 06:17:08;;;;;;;;;;;;;;;-1.68;100.00;101934.91;5038146;28;967;-73
2023/12/07 06:19:33;;;;;;;;;;;;;;;-1.67;100.00;101936.56;5038742;28;1635;-72
2023/12/07 06:21:58;;;;;;;;;;;;;;;-1.66;100.00;101947.63;5041867;28;1979;-71
2023/12/07 06:24:24;;;;;;;;;;;;;;;-1.69;100.00;101948.50;5041775;28;1004;-72
2023/12/07 06:26:50;;;;;;;;;;;;;;;-1.68;100.00;101960.34;5044372;28;1054;-71
2023/12/07 06:29:15;;;;;;;;;;;;;;;-1.70;100.00;101956.97;5042329;28;1215;-73
2023/12/07 06:31:43;;;;;;;;;;;;;;;-1.70;100.00;101954.44;5034995;28;1163;-71
2023/12/07 06:34:08;;;;;;;;;;;;;;;-1.68;100.00;101955.25;5042201;28;1389;-71
2023/12/07 06:36:35;;;;;;;;;;;;;;;-1.64;100.00;101956.91;5044838;28;1076;-71
2023/12/07 06:39:01;;;;;;;;;;;;;;;-1.61;100.00;101956.88;5038475;28;1306;-72
2023/12/07 06:41:26;;;;;;;;;;;;;;;-1.58;100.00;101957.69;5046522;28;1102;-71
2023/12/07 06:43:51;;;;;;;;;;;;;;;-1.57;100.00;101954.28;5042340;28;1890;-71
2023/12/07 06:46:17;;;;;;;;;;;;;;;-1.56;100.00;101950.88;5041662;28;1136;-71
2023/12/07 06:48:42;;;;;;;;;;;;;;;-1.57;100.00;101941.56;5043177;28;1311;-72
2023/12/07 06:51:07;;;;;;;;;;;;;;;-1.57;100.00;101939.84;5045299;28;1065;-71
2023/12/07 06:53:32;;;;;;;;;;;;;;;-1.57;100.00;101928.84;5042176;28;1357;-71
2023/12/07 06:55:58;;;;;;;;;;;;;;;-1.57;100.00;101942.41;5043882;28;1149;-72
2023/12/07 06:58:23;;;;;;;;;;;;;;;-1.61;100.00;101939.06;5039362;28;1287;-72
2023/12/07 07:00:49;;;;;;;;;;;;;;;-1.63;100.00;101947.56;5041769;28;1261;-71
2023/12/07 07:03:14;;;;;;;;;;;;;;;-1.64;100.00;101951.81;5037708;28;1898;-73
2023/12/07 07:05:40;;;;;;;;;;;;;;;-1.68;100.00;101949.31;5041146;28;1021;-71
2023/12/07 07:08:07;;;;;;;;;;;;;;;-1.66;100.00;101953.53;5031822;28;1664;-72
2023/12/07 07:10:32;;;;;;;;;;;;;;;-1.65;100.00;101946.75;5031429;28;999;-72
2023/12/07 07:13:04;;;;;;;;;;;;;;;-1.65;100.00;101944.22;5030546;28;1135;-73
2023/12/07 07:15:29;;;;;;;;;;;;;;;-1.65;100.00;101949.31;5034533;28;1118;-72
2023/12/07 07:17:54;;;;;;;;;;;;;;;-1.62;100.00;101941.63;5036370;28;1177;-75
2023/12/07 07:20:20;;;;;;;;;;;;;;;-1.63;100.00;101943.31;5032266;28;1020;-71
2023/12/07 07:22:45;;;;;;;;;;;;;;;-1.63;100.00;101943.31;5042184;28;1893;-72
2023/12/07 07:25:11;;;;;;;;;;;;;;;-1.61;100.00;101946.69;5042392;28;1062;-72
2023/12/07 07:27:36;;;;;;;;;;;;;;;-1.61;100.00;101941.63;5040546;28;1084;-71
2023/12/07 07:30:04;;;;;;;;;;;;;;;-1.61;100.00;101939.06;5038445;28;1041;-72
2023/12/07 07:32:29;;;;;;;;;;;;;;;-1.61;100.00;101951.78;5039027;28;1048;-71
2023/12/07 07:34:54;;;;;;;;;;;;;;;-1.59;100.00;101943.28;5045067;28;1060;-72
2023/12/07 07:37:19;;;;;;;;;;;;;;;-1.58;100.00;101939.88;5039642;28;1134;-72
2023/12/07 07:39:45;;;;;;;;;;;;;;;-1.58;100.00;101950.06;5044844;28;938;-71
2023/12/07 07:42:10;;;;;;;;;;;;;;;-1.57;100.00;101956.81;5043948;28;1977;-72
2023/12/07 07:44:35;;;;;;;;;;;;;;;-1.55;100.00;101952.53;5041299;28;1005;-72
2023/12/07 07:47:00;;;;;;;;;;;;;;;-1.57;100.00;101956.81;5042283;28;1082;-71
2023/12/07 07:49:25;;;;;;;;;;;;;;;-1.56;100.00;101958.50;5039891;28;1138;-72
2023/12/07 07:51:51;;;;;;;;;;;;;;;-1.60;100.00;101955.16;5035640;28;1091;-72
2023/12/07 07:54:16;;;;;;;;;;;;;;;-1.62;100.00;101955.16;5043484;28;1095;-74
2023/12/07 07:56:42;;;;;;;;;;;;;;;-1.61;100.00;101956.88;5039619;28;1052;-72
2023/12/07 07:59:08;;;;;;;;;;;;;;;-1.59;100.00;101973.81;5052721;28;1290;-71
2023/12/07 08:01:33;;;;;;;;;;;;;;;-1.59;100.00;101973.81;5041185;28;1197;-74
2023/12/07 08:03:58;;;;;;;;;;;;;;;-1.58;100.00;101975.50;5041661;28;1976;-71
2023/12/07 08:06:23;;;;;;;;;;;;;;;-1.58;100.00;101965.31;5038411;28;1074;-72
2023/12/07 08:08:49;;;;;;;;;;;;;;;-1.59;100.00;101966.19;5036431;28;1238;-73
2023/12/07 08:11:15;;;;;;;;;;;;;;;-1.57;100.00;101961.91;5046572;28;1109;-72
2023/12/07 08:13:40;;;;;;;;;;;;;;;-1.58;100.00;101955.13;5042135;28;1136;-72
2023/12/07 08:16:08;;;;;;;;;;;;;;;-1.61;100.00;101951.78;5042946;28;1085;-72
2023/12/07 08:18:33;;;;;;;;;;;;;;;-1.63;100.00;101948.41;5045050;28;1056;-71
2023/12/07 08:20:58;;;;;;;;;;;;;;;-1.64;100.00;101936.56;5039169;28;1137;-72
2023/12/07 08:23:24;;;;;;;;;;;;;;;-1.63;100.00;101942.47;5041899;28;1977;-73
2023/12/07 08:25:49;;;;;;;;;;;;;;;-1.63;100.00;101943.31;5048101;28;1086;-71
2023/12/07 08:28:14;;;;;;;;;;;;;;;-1.62;100.00;101955.16;5040150;28;1209;-74
2023/12/07 08:30:39;;;;;;;;;;;;;;;-1.59;100.00;101953.47;5048355;28;1108;-71
2023/12/07 08:33:04;;;;;;;;;;;;;;;-1.56;100.00;101954.25;5043925;28;1101;-72
2023/12/07 08:35:30;;;;;;;;;;;;;;;-1.55;100.00;101950.00;5048043;28;1322;-71
2023/12/07 08:37:55;;;;;;;;;;;;;;;-1.54;100.00;101956.78;5045885;28;1255;-73
2023/12/07 08:40:20;;;;;;;;;;;;;;;-1.54;100.00;101956.78;5046563;28;1284;-72
2023/12/07 08:42:46;;;;;;;;;;;;;;;-1.53;100.00;101935.56;5048468;28;2239;-73
2023/12/07 08:45:11;;;;;;;;;;;;;;;-1.50;100.00;101938.06;5049610;28;1147;-73
2023/12/07 08:47:36;;;;;;;;;;;;;;;-1.49;100.00;101944.81;5044757;28;1127;-72
2023/12/07 08:50:02;;;;;;;;;;;;;;;-1.48;100.00;101951.63;5037693;28;1145;-71
2023/12/07 08:52:27;;;;;;;;;;;;;;;-1.47;100.00;101945.66;5043900;28;1009;-71
2023/12/07 08:54:52;;;;;;;;;;;;;;;-1.48;100.00;101952.47;5042668;28;1083;-71
2023/12/07 08:57:18;;;;;;;;;;;;;;;-1.48;100.00;101951.63;5044966;28;1353;-71
2023/12/07 08:59:43;;;;;;;;;;;;;;;-1.48;100.00;101941.44;5042453;28;1407;-71
2023/12/07 09:02:08;;;;;;;;;;;;;;;-1.47;100.00;101938.03;5049355;28;1922;-73
2023/12/07 09:04:33;;;;;;;;;;;;;;;-1.43;100.00;101939.69;5046956;28;1105;-72
2023/12/07 09:06:58;;;;;;;;;;;;;;;-1.42;100.00;101946.44;5046216;28;1061;-72
2023/12/07 09:09:25;;;;;;;;;;;;;;;-1.40;100.00;101944.72;5039338;28;1034;-72
2023/12/07 09:11:50;;;;;;;;;;;;;;;-1.37;100.00;101944.69;5046321;28;942;-71
2023/12/07 09:14:15;;;;;;;;;;;;;;;-1.34;100.00;101940.38;5041145;28;1331;-73
2023/12/07 09:16:44;;;;;;;;;;;;;;;-1.33;100.00;101959.03;5043207;28;1162;-71
2023/12/07 09:19:10;;;;;;;;;;;;;;;-1.30;100.00;101951.34;5042787;28;1155;-74
2023/12/07 09:21:35;;;;;;;;;;;;;;;-1.28;100.00;101938.59;5041746;28;1056;-74
2023/12/07 09:24:01;;;;;;;;;;;;;;;-1.28;100.00;101934.34;5036798;28;1893;-72
2023/12/07 09:26:27;;;;;;;;;;;;;;;-1.28;100.00;101933.50;5038740;28;1539;-73
2023/12/07 09:28:52;;;;;;;;;;;;;;;-1.29;100.00;101942.84;5042102;28;981;-73
2023/12/07 09:31:17;;;;;;;;;;;;;;;-1.28;100.00;101934.34;5037202;28;1176;-72
2023/12/07 09:33:43;;;;;;;;;;;;;;;-1.27;100.00;101941.13;5043875;28;1025;-72
2023/12/07 09:36:08;;;;;;;;;;;;;;;-1.27;100.00;101941.13;5037646;28;1101;-74
2023/12/07 09:38:35;;;;;;;;;;;;;;;-1.25;100.00;101939.41;5045061;28;1351;-73
2023/12/07 09:41:00;;;;;;;;;;;;;;;-1.27;100.00;101941.13;5042962;28;1164;-73
2023/12/07 09:43:25;;;;;;;;;;;;;;;-1.24;100.00;101935.16;5041743;28;1964;-72
2023/12/07 09:45:54;;;;;;;;;;;;;;;-1.25;100.00;101939.41;5044542;28;1286;-72
2023/12/07 09:48:20;;;;;;;;;;;;;;;-1.27;100.00;101933.47;5060512;23;1523;-72
2023/12/07 09:50:45;;;;;;;;;;;;;;;-1.27;100.00;101928.41;5054917;28;1108;-72
2023/12/07 09:53:10;;;;;;;;;;;;;;;-1.26;100.00;101922.47;5049463;28;1159;-73
2023/12/07 09:55:35;;;;;;;;;;;;;;;-1.25;100.00;101924.13;5051515;28;1648;-72
2023/12/07 09:58:02;;;;;;;;;;;;;;;-1.24;100.00;101920.72;5050120;28;1068;-73
2023/12/07 10:00:28;;;;;;;;;;;;;;;-1.23;100.00;101912.22;5042336;28;1115;-72
2023/12/07 10:02:54;;;;;;;;;;;;;;;-1.23;100.00;101904.59;5043202;28;1914;-74
2023/12/07 10:05:19;;;;;;;;;;;;;;;-1.23;100.00;101901.22;5053178;28;1141;-74
2023/12/07 10:07:47;;;;;;;;;;;;;;;-1.26;100.00;101893.59;5049521;28;1182;-73
2023/12/07 10:10:13;;;;;;;;;;;;;;;-1.19;100.00;101903.69;5046494;28;1313;-74
2023/12/07 10:12:51;;;;;;;;;;;;;;;-1.17;100.00;101891.75;5047233;28;1089;-72
2023/12/07 10:15:17;;;;;;;;;;;;;;;-1.15;100.00;101884.09;5044611;28;1121;-72
2023/12/07 10:17:48;;;;;;;;;;;;;;;-1.13;100.00;101893.41;5042662;28;1199;-72
2023/12/07 10:20:15;;;;;;;;;;;;;;;-1.09;100.00;101881.44;5046986;28;1058;-73
2023/12/07 10:22:40;;;;;;;;;;;;;;;-1.08;100.00;101886.53;5056235;28;1894;-73
2023/12/07 10:25:06;;;;;;;;;;;;;;;-1.05;100.00;101877.16;5035963;28;961;-72
2023/12/07 10:27:31;;;;;;;;;;;;;;;-1.04;100.00;101868.66;5044259;28;1120;-73
2023/12/07 10:29:58;;;;;;;;;;;;;;;-1.01;100.00;101866.06;5045735;28;1267;-72
2023/12/07 10:32:23;;;;;;;;;;;;;;;-0.99;100.00;101860.06;5035766;28;1047;-74
2023/12/07 10:34:48;;;;;;;;;;;;;;;-0.96;100.00;101856.66;5038738;28;1179;-72
2023/12/07 10:37:14;;;;;;;;;;;;;;;-0.94;100.00;101852.34;5049858;28;1196;-74
2023/12/07 10:39:39;;;;;;;;;;;;;;;-0.91;100.00;101844.69;5053074;28;1235;-73
2023/12/07 10:42:09;;;;;;;;;;;;;;;-0.88;100.00;101837.81;5041754;28;1898;-73
2023/12/07 10:44:35;;;;;;;;;;;;;;;-0.86;100.00;101836.09;5044310;28;996;-73
2023/12/07 10:47:01;;;;;;;;;;;;;;;-0.85;100.00;101831.84;5048514;28;1421;-73
2023/12/07 10:49:27;;;;;;;;;;;;;;;-0.81;100.00;101838.53;5048162;28;1135;-74
2023/12/07 10:52:00;;;;;;;;;;;;;;;-0.77;100.00;101837.63;5038437;28;1094;-74
2023/12/07 10:54:28;;;;;;;;;;;;;;;-0.74;100.00;101818.91;5043277;28;1143;-72
2023/12/07 10:56:54;;;;;;;;;;;;;;;-0.70;100.00;101818.78;5048737;28;1257;-72
2023/12/07 10:59:20;;;;;;;;;;;;;;;-0.69;100.00;101810.31;5052653;28;1260;-73
2023/12/07 11:01:47;;;;;;;;;;;;;;;-0.66;100.00;101807.69;5049768;28;1087;-73
2023/12/07 11:04:13;;;;;;;;;;;;;;;-0.63;100.00;101817.84;5038381;28;1906;-73
2023/12/07 11:06:42;;;;;;;;;;;;;;;-0.59;100.00;101819.44;5045654;28;1350;-75
2023/12/07 11:09:09;;;;;;;;;;;;;;;-0.56;100.00;101814.28;5046066;28;1100;-73
2023/12/07 11:11:47;;;;;;;;;;;;;;;-0.52;100.00;101809.94;5045106;28;1165;-72
2023/12/07 11:14:13;;;;;;;;;;;;;;;-0.48;100.00;101795.44;5045970;28;1115;-73
2023/12/07 11:16:42;;;;;;;;;;;;;;;-0.42;100.00;101797.88;5049428;28;1152;-73
2023/12/07 11:19:26;;;;;;;;;;;;;;;-0.39;100.00;101791.03;5049616;28;1007;-73
2023/12/07 11:21:51;;;;;;;;;;;;;;;-0.35;100.00;101789.22;5047918;28;1207;-73
2023/12/07 11:24:17;;;;;;;;;;;;;;;-0.30;100.00;101784.88;5044309;28;1886;-73
2023/12/07 11:26:42;;;;;;;;;;;;;;;-0.25;100.00;101777.97;5044302;28;1175;-73
2023/12/07 11:29:08;;;;;;;;;;;;;;;-0.21;100.00;101771.09;5044681;28;1460;-72
2023/12/07 11:31:33;;;;;;;;;;;;;;;-0.18;100.00;101771.88;5040676;28;1544;-73
2023/12/07 11:34:05;;;;;;;;;;;;;;;-0.15;100.00;101773.53;5041298;28;1062;-73
2023/12/07 11:36:30;;;;;;;;;;;;;;;-0.11;100.00;101760.69;5039424;28;1721;-75
2023/12/07 11:39:02;;;;;;;;;;;;;;;-0.08;100.00;101755.50;5057056;28;1024;-74
2023/12/07 11:41:34;;;;;;;;;;;;;;;-0.03;100.00;101753.69;5044459;28;1028;-73
2023/12/07 11:44:00;;;;;;;;;;;;;;;0.01;100.00;101748.53;5049188;28;1965;-73
2023/12/07 11:46:25;;;;;;;;;;;;;;;0.04;100.00;101738.25;5055328;28;920;-75
2023/12/07 11:48:50;;;;;;;;;;;;;;;0.09;100.00;101736.41;5049683;28;1099;-72
2023/12/07 11:51:16;;;;;;;;;;;;;;;0.13;100.00;101743.13;5047169;28;1114;-73
2023/12/07 11:53:41;;;;;;;;;;;;;;;0.17;100.00;101739.63;5054810;28;1052;-73
2023/12/07 11:56:08;;;;;;;;;;;;;;;0.21;100.00;101728.47;5042631;28;1083;-72
2023/12/07 11:58:34;;;;;;;;;;;;;;;0.25;100.00;101730.09;5058624;28;1136;-73
2023/12/07 12:00:59;;;;;;;;;;;;;;;0.29;100.00;101718.94;5040666;28;1013;-72
2023/12/07 12:03:25;;;;;;;;;;;;;;;0.32;100.00;101721.41;5047407;28;1882;-72
2023/12/07 12:05:50;;;;;;;;;;;;;;;0.35;100.00;101710.28;5051259;28;1075;-72
2023/12/07 12:08:16;;;;;;;;;;;;;;;0.36;100.00;101705.16;5051680;28;1151;-74
2023/12/07 12:10:42;;;;;;;;;;;;;;;0.37;100.00;101706.81;5056999;28;926;-72
2023/12/07 12:13:08;;;;;;;;;;;;;;;0.41;100.00;101708.44;5057806;28;1102;-73
2023/12/07 12:15:33;;;;;;;;;;;;;;;0.44;100.00;101713.44;5044252;28;1122;-72
2023/12/07 12:17:59;;;;;;;;;;;;;;;0.44;100.00;101703.22;5061461;28;1307;-72
2023/12/07 12:20:25;;;;;;;;;;;;;;;0.49;100.00;101696.28;5040780;28;1014;-75
2023/12/07 12:22:53;;;;;;;;;;;;;;;0.53;100.00;101692.78;5051141;28;1901;-73
2023/12/07 12:25:20;;;;;;;;;;;;;;;0.57;100.00;101687.59;5054932;28;1181;-72
2023/12/07 12:27:46;;;;;;;;;;;;;;;0.64;100.00;101694.22;5058159;28;1152;-73
2023/12/07 12:30:11;;;;;;;;;;;;;;;0.68;100.00;101680.50;5042437;28;1234;-72